Flight Track Log - Related Links

Times and Time Zones

All times are in EDT time to prevent confusion due to time zone crossing. See the N983CA flight status page for this flight to view local times or setup timezone preferences in your user account.

Time Position Orientation Groundspeed Altitude Reporting Facility
EDT Latitude Longitude Course Direction KTS MPH feet Rate Location/Type
Sat 11:56:33 AM 34.0556 -117.6942 268° West 239 275 3,200  Level Los Angeles Center
Sat 11:57:35 AM 34.0889 -117.7908 293° West 263 303 6,300 2,516 Climbing Los Angeles Center
Sat 11:58:37 AM 34.1325 -117.8633 306° West 269 310 8,400 2,081 Climbing Los Angeles Center
Sat 11:59:00 AM 34.3100 -118.1316 309° West  Level FlightAware Approximate
Sat 11:59:39 AM 34.1789 -117.9342 308° West 270 311 10,600  Level Los Angeles Center
Sat 12:00:00 PM 34.3748 -118.2358 306° West  Level FlightAware Approximate
Sat 12:00:41 PM 34.2303 -118.0058 311° West 280 322 12,700  Level Los Angeles Center
Sat 12:01:42 PM 34.2814 -118.0831 309° West 295 339 14,200 1,707 Climbing Los Angeles Center
Sat 12:02:44 PM 34.3478 -118.1822 309° West 314 361 16,200 1,645 Climbing Los Angeles Center
Sat 12:04:00 PM 34.4201 -118.2942 311° West  Level FlightAware Approximate
Sat 12:04:48 PM 34.4617 -118.3511 311° West 328 377 19,300  Level Los Angeles Center
Sat 12:05:50 PM 34.5217 -118.4400 309° West 342 394 20,600 1,113 Climbing Los Angeles Center
Sat 12:06:52 PM 34.5822 -118.5258 311° West 337 388 21,600 1,065 Climbing Los Angeles Center
Sat 12:07:54 PM 34.6425 -118.6203 308° West 354 407 22,800 1,113 Climbing Los Angeles Center
Sat 12:08:56 PM 34.7169 -118.7300 310° West 351 404 23,900 1,065 Climbing Los Angeles Center
Sat 12:09:58 PM 34.7783 -118.8239 309° West 357 411 25,000 919 Climbing Los Angeles Center
Sat 12:11:00 PM 34.8536 -118.9036 319° Northwest 365 420 25,800 774 Climbing Los Angeles Center
Sat 12:12:02 PM 34.9447 -118.9772 326° Northwest 363 418 26,600 726 Climbing Los Angeles Center
Sat 12:13:04 PM 35.0117 -119.0703 311° West 377 434 27,300 629 Climbing Los Angeles Center
Sat 12:14:06 PM 35.0697 -119.1744 304° West 371 427 27,900 581 Climbing Los Angeles Center
Sat 12:15:08 PM 35.1267 -119.2811 303° West 375 432 28,500 677 Climbing Los Angeles Center
Sat 12:16:10 PM 35.1839 -119.3883 303° West 375 432 29,300 768 Climbing Los Angeles Center
Sat 12:17:13 PM 35.2519 -119.5161 303° West 375 432 30,100 720 Climbing Los Angeles Center
Sat 12:18:15 PM 35.3089 -119.6239 303° West 377 434 30,800 629 Climbing Los Angeles Center
Sat 12:19:17 PM 35.3647 -119.7300 303° West 373 429 31,400 608 Climbing Los Angeles Center
Sat 12:19:34 PM 35.3753 -119.7492 304° West 375 432 31,600 462 Climbing Oakland Center
Sat 12:20:35 PM 35.4419 -119.8775 303° West 375 432 32,000 197 Climbing Oakland Center
Sat 12:21:36 PM 35.4983 -119.9850 303° West 378 435 32,000  Level Oakland Center
Sat 12:22:37 PM 35.5544 -120.0914 303° West 376 433 32,000  Level Oakland Center
Sat 12:23:39 PM 35.6106 -120.1989 303° West 379 436 32,000  Level Oakland Center
Sat 12:24:40 PM 35.6656 -120.3083 302° West 381 438 32,000  Level Oakland Center
Sat 12:25:41 PM 35.7139 -120.4219 298° West 379 436 32,000  Level Oakland Center
Sat 12:26:42 PM 35.7592 -120.5372 296° West 379 436 32,000  Level Oakland Center
Sat 12:27:44 PM 35.8139 -120.6772 296° West 382 440 32,000  Level Oakland Center
Sat 12:28:45 PM 35.8589 -120.7939 295° West 380 437 32,000  Level Oakland Center
Sat 12:29:46 PM 35.9036 -120.9125 295° West 383 441 32,000  Level Oakland Center
Sat 12:30:47 PM 35.9486 -121.0308 295° West 383 441 32,000  Level Oakland Center
Sat 12:31:49 PM 35.9944 -121.1478 296° West 381 438 32,000  Level Oakland Center
Sat 12:32:50 PM 36.0392 -121.2669 295° West 383 441 32,000  Level Oakland Center
Sat 12:33:51 PM 36.0828 -121.3864 294° West 385 443 32,000 -148 Level Oakland Center
Sat 12:34:52 PM 36.1208 -121.5056 292° West 379 436 31,700 -639 Descending Oakland Center
Sat 12:35:53 PM 36.1267 -121.6392 273° West 386 444 30,700 -1,073 Descending Oakland Center
Sat 12:36:55 PM 36.1592 -121.7897 285° West 395 455 29,500 -1,024 Descending Oakland Center
Sat 12:37:56 PM 36.2522 -121.8253 343° North 380 437 28,600 -1,180 Descending Oakland Center
Sat 12:38:57 PM 36.3592 -121.8583 346° North 391 450 27,100 -2,255 Descending Oakland Center
Sat 12:40:41 PM 36.5667 -121.9167 347° North 395 455 22,400 -2,508 Descending Northern Cal TRACON
Sat 12:40:59 PM 36.5744 -121.9178 353° North 391 450 22,000 -2,545 Descending Oakland Center
Sat 12:41:47 PM 36.6667 -121.9500 344° North 386 444 19,600 -2,706 Descending Northern Cal TRACON
Sat 12:42:41 PM 36.7667 -121.9667 352° North 375 432 17,400 -1,895 Descending Northern Cal TRACON
Sat 12:43:41 PM 36.8667 -122.0000 345° North 364 419 16,000 -1,463 Descending Northern Cal TRACON
Sat 12:44:03 PM 36.9008 -122.0047 354° North 363 418 15,400 -1,500 Descending Oakland Center
Sat 12:45:05 PM 36.9986 -122.0289 349° North 359 413 13,900 -1,024 Descending Oakland Center
Sat 12:46:06 PM 37.0919 -122.0558 347° North 346 398 13,300 -1,082 Descending Oakland Center
Sat 12:47:07 PM 37.1406 -122.1647 299° West 362 417 11,700 -1,426 Descending Oakland Center
Sat 12:48:08 PM 37.1886 -122.2678 300° West 350 403 10,400 -1,073 Descending Oakland Center
Sat 12:49:10 PM 37.2589 -122.2489 12° North 266 306 9,500 -976 Descending Oakland Center
Sat 12:50:11 PM 37.3142 -122.2039 33° Northeast 238 274 8,400 -1,131 Descending Oakland Center
Sat 12:51:12 PM 37.3706 -122.1706 25° Northeast 227 261 7,200 -1,610 Descending Oakland Center
Sat 12:52:14 PM 37.4353 -122.1583 North 207 238 5,100 -1,073 Descending Oakland Center
Sat 12:53:15 PM 37.4928 -122.1667 353° North 207 238 5,000 -738 Descending Oakland Center
Sat 12:54:16 PM 37.5436 -122.1964 335° Northwest 213 245 3,600 -1,377 Descending Oakland Center

Login

Don't have an account? Register now (free) for customized features, flight alerts, and more!